createdAt,value
2022-12-01T00:01:15.224Z,18.53
2022-12-01T00:06:36.874Z,18.51
2022-12-01T00:11:58.529Z,18.50
2022-12-01T00:17:21.553Z,18.48
2022-12-01T00:22:48.114Z,18.45
2022-12-01T00:28:09.805Z,18.44
2022-12-01T00:33:31.620Z,18.41
2022-12-01T00:38:55.305Z,18.41
2022-12-01T00:44:16.934Z,18.37
2022-12-01T00:49:38.687Z,18.34
2022-12-01T00:55:00.338Z,18.30
2022-12-01T01:00:22.028Z,18.27
2022-12-01T01:05:44.197Z,18.25
2022-12-01T01:11:06.967Z,18.25
2022-12-01T01:16:28.924Z,18.23
2022-12-01T01:21:50.733Z,18.21
2022-12-01T01:27:12.374Z,18.19
2022-12-01T01:32:34.233Z,18.18
2022-12-01T01:37:58.550Z,18.17
2022-12-01T01:43:44.728Z,18.15
2022-12-01T01:49:11.726Z,18.12
2022-12-01T01:54:37.385Z,18.12
2022-12-01T02:00:04.681Z,18.06
2022-12-01T02:05:30.654Z,18.08
2022-12-01T02:11:17.734Z,18.05
2022-12-01T02:16:58.181Z,18.06
2022-12-01T02:22:35.798Z,18.04
2022-12-01T02:28:29.484Z,18.04
2022-12-01T02:34:11.685Z,18.01
2022-12-01T02:39:46.303Z,17.99
2022-12-01T02:45:14.143Z,17.98
2022-12-01T02:50:39.240Z,17.96
2022-12-01T02:56:01.072Z,17.96
2022-12-01T03:01:46.488Z,17.96
2022-12-01T03:07:20.373Z,17.91
2022-12-01T03:12:59.345Z,17.90
2022-12-01T03:18:29.891Z,17.88
2022-12-01T03:24:13.879Z,17.88
2022-12-01T03:29:45.163Z,17.87
2022-12-01T03:35:14.642Z,17.85
2022-12-01T03:40:39.483Z,17.84
2022-12-01T03:46:25.407Z,17.85
2022-12-01T03:51:59.055Z,17.84
2022-12-01T03:57:30.160Z,17.83
2022-12-01T04:02:57.060Z,17.81
2022-12-01T04:08:19.085Z,17.81
2022-12-01T04:13:40.724Z,17.80
2022-12-01T04:19:02.406Z,17.80
2022-12-01T04:24:24.105Z,17.79
2022-12-01T04:29:46.063Z,17.79
2022-12-01T04:35:10.748Z,17.79
2022-12-01T04:40:32.404Z,17.77
2022-12-01T04:45:54.079Z,17.76
2022-12-01T04:51:15.991Z,17.76
2022-12-01T04:56:37.731Z,17.77
2022-12-01T05:01:59.500Z,17.76
2022-12-01T05:07:21.254Z,17.75
2022-12-01T05:12:42.973Z,17.74
2022-12-01T05:18:04.703Z,17.74
2022-12-01T05:23:28.279Z,17.73
2022-12-01T05:28:50.006Z,17.73
2022-12-01T05:34:11.689Z,17.72
2022-12-01T05:39:33.350Z,17.71
2022-12-01T05:44:55.012Z,17.71
2022-12-01T05:50:16.679Z,17.71
2022-12-01T05:55:38.959Z,17.70
2022-12-01T06:01:01.040Z,17.69
2022-12-01T06:06:22.696Z,17.69
2022-12-01T06:11:44.370Z,17.69
2022-12-01T06:17:06.057Z,17.68
2022-12-01T06:22:27.740Z,17.69
2022-12-01T06:27:49.413Z,17.69
2022-12-01T06:33:11.821Z,17.68
2022-12-01T06:38:35.503Z,17.69
2022-12-01T06:43:57.165Z,17.67
2022-12-01T06:49:19.931Z,17.67
2022-12-01T06:54:41.589Z,17.66
2022-12-01T07:00:04.781Z,17.67
2022-12-01T07:05:26.772Z,17.64
2022-12-01T07:10:57.297Z,17.63
2022-12-01T07:16:19.165Z,17.61
2022-12-01T07:21:40.888Z,17.59
2022-12-01T07:27:02.535Z,17.59
2022-12-01T07:32:24.249Z,17.59
2022-12-01T07:37:46.362Z,17.56
2022-12-01T07:43:08.016Z,17.55
2022-12-01T07:48:30.395Z,17.54
2022-12-01T07:53:53.528Z,17.53
2022-12-01T07:59:15.181Z,17.52
2022-12-01T08:04:37.260Z,17.49
2022-12-01T08:09:59.030Z,17.49
2022-12-01T08:15:20.681Z,17.49
2022-12-01T08:20:42.420Z,17.48
2022-12-01T08:26:06.761Z,17.46
2022-12-01T08:31:35.893Z,17.46
2022-12-01T08:36:57.844Z,17.43
2022-12-01T08:42:19.575Z,17.43
2022-12-01T08:47:41.261Z,17.42
2022-12-01T08:53:02.925Z,17.39
2022-12-01T08:58:24.930Z,17.40
2022-12-01T09:03:47.400Z,17.40
2022-12-01T09:09:11.138Z,17.39
2022-12-01T09:14:37.987Z,17.39
2022-12-01T09:19:59.663Z,17.38
2022-12-01T09:25:21.341Z,17.37
2022-12-01T09:30:43.188Z,17.38
2022-12-01T09:36:07.304Z,17.37
2022-12-01T09:42:05.005Z,17.37
2022-12-01T09:47:34.305Z,17.34
2022-12-01T09:53:03.887Z,17.30
2022-12-01T09:58:30.937Z,17.33
2022-12-01T10:03:57.964Z,17.32
2022-12-01T10:09:19.570Z,17.30
2022-12-01T10:14:43.493Z,17.29
2022-12-01T10:20:21.799Z,17.30
2022-12-01T10:25:52.369Z,17.30
2022-12-01T10:31:26.666Z,17.30
2022-12-01T10:36:48.862Z,17.28
2022-12-01T10:42:24.397Z,17.31
2022-12-01T10:48:18.216Z,17.29
2022-12-01T10:53:39.958Z,17.26
2022-12-01T10:59:21.908Z,17.27
2022-12-01T11:04:46.215Z,17.23
2022-12-01T11:10:16.340Z,17.24
2022-12-01T11:15:40.994Z,17.25
2022-12-01T11:21:13.136Z,17.24
2022-12-01T11:26:34.976Z,17.22
2022-12-01T11:31:59.079Z,17.21
2022-12-01T11:37:24.624Z,17.22
2022-12-01T11:42:56.552Z,17.21
2022-12-01T11:48:21.257Z,17.22
2022-12-01T11:53:44.268Z,17.20
2022-12-01T11:59:12.455Z,17.21
2022-12-01T12:05:01.879Z,17.20
2022-12-01T12:10:44.158Z,17.21
2022-12-01T12:16:17.800Z,17.19
2022-12-01T12:22:10.476Z,17.18
2022-12-01T12:27:59.190Z,17.17
2022-12-01T12:33:29.943Z,17.16
2022-12-01T12:39:00.601Z,17.15
2022-12-01T12:44:36.811Z,17.16
2022-12-01T12:50:17.535Z,17.15
2022-12-01T12:55:45.440Z,17.12
2022-12-01T13:01:16.125Z,17.13
2022-12-01T13:06:43.667Z,17.10
2022-12-01T13:12:10.022Z,17.10
2022-12-01T13:17:44.683Z,17.10
2022-12-01T13:23:10.116Z,17.08
2022-12-01T13:28:53.890Z,17.08
2022-12-01T13:34:27.584Z,17.09
2022-12-01T13:39:54.594Z,17.08
2022-12-01T13:45:19.958Z,17.07
2022-12-01T13:50:44.160Z,17.04
2022-12-01T13:56:25.419Z,17.06
2022-12-01T14:01:47.917Z,17.04
2022-12-01T14:07:35.132Z,17.03
2022-12-01T14:13:02.526Z,17.02
2022-12-01T14:18:36.867Z,17.02
2022-12-01T14:24:01.828Z,17.00
2022-12-01T14:29:26.944Z,16.97
2022-12-01T14:34:52.238Z,16.96
2022-12-01T14:40:19.063Z,16.94
2022-12-01T14:45:55.043Z,16.93
2022-12-01T14:51:28.511Z,16.92
2022-12-01T14:56:54.178Z,16.91
2022-12-01T15:02:15.878Z,16.87
2022-12-01T15:07:39.730Z,16.89
2022-12-01T15:13:21.798Z,16.90
2022-12-01T15:18:44.151Z,16.87
2022-12-01T15:24:19.677Z,16.88
2022-12-01T15:29:45.710Z,16.87
2022-12-01T15:35:17.023Z,16.87
2022-12-01T15:41:27.395Z,16.86
2022-12-01T15:46:28.284Z,16.88
2022-12-01T15:51:50.840Z,16.86
2022-12-01T15:57:17.577Z,16.84
2022-12-01T16:02:39.918Z,16.84
2022-12-01T16:08:19.991Z,16.84
2022-12-01T16:13:47.344Z,16.81
2022-12-01T16:19:08.986Z,16.79
2022-12-01T16:24:51.775Z,16.80
2022-12-01T16:30:23.067Z,16.79
2022-12-01T16:35:45.222Z,16.78
2022-12-01T16:41:17.773Z,16.79
2022-12-01T16:46:40.400Z,16.76
2022-12-01T16:52:16.015Z,16.84
2022-12-01T16:57:43.863Z,17.07
2022-12-01T17:03:06.396Z,17.35
2022-12-01T17:08:28.606Z,17.59
2022-12-01T17:13:50.341Z,17.81
2022-12-01T17:19:12.207Z,17.95
2022-12-01T17:24:33.912Z,17.99
2022-12-01T17:29:55.749Z,17.99
2022-12-01T17:35:17.649Z,17.94
2022-12-01T17:40:39.400Z,17.89
2022-12-01T17:46:02.122Z,17.96
2022-12-01T17:51:24.205Z,18.07
2022-12-01T17:56:45.926Z,18.40
2022-12-01T18:02:09.997Z,18.81
2022-12-01T18:07:31.787Z,19.25
2022-12-01T18:12:53.470Z,19.67
2022-12-01T18:18:15.205Z,19.97
2022-12-01T18:23:37.197Z,20.11
2022-12-01T18:29:07.118Z,20.10
2022-12-01T18:34:32.281Z,20.02
2022-12-01T18:39:56.527Z,19.88
2022-12-01T18:45:21.214Z,19.73
2022-12-01T18:50:43.035Z,19.57
2022-12-01T18:56:07.465Z,19.50
2022-12-01T19:01:42.429Z,19.48
2022-12-01T19:07:05.700Z,19.47
2022-12-01T19:12:27.526Z,19.50
2022-12-01T19:17:49.292Z,19.68
2022-12-01T19:23:11.010Z,19.92
2022-12-01T19:28:34.093Z,20.15
2022-12-01T19:33:56.131Z,20.36
2022-12-01T19:39:17.884Z,20.52
2022-12-01T19:44:39.569Z,20.69
2022-12-01T19:50:01.378Z,20.84
2022-12-01T19:55:23.016Z,20.98
2022-12-01T20:00:44.934Z,21.04
2022-12-01T20:06:30.587Z,21.05
2022-12-01T20:11:53.851Z,21.02
2022-12-01T20:17:16.164Z,20.94
2022-12-01T20:22:38.269Z,20.84
2022-12-01T20:28:00.077Z,20.70
2022-12-01T20:33:22.053Z,20.57
2022-12-01T20:38:44.207Z,20.45
2022-12-01T20:44:07.638Z,20.37
2022-12-01T20:49:29.823Z,20.29
2022-12-01T20:54:51.707Z,20.24
2022-12-01T21:00:14.344Z,20.28
2022-12-01T21:05:39.459Z,20.42
2022-12-01T21:11:06.165Z,20.50
2022-12-01T21:16:34.111Z,20.51
2022-12-01T21:21:56.248Z,20.48
2022-12-01T21:27:18.517Z,20.41
2022-12-01T21:32:44.034Z,20.27
2022-12-01T21:38:11.112Z,20.13
2022-12-01T21:43:38.091Z,20.00
2022-12-01T21:49:01.469Z,19.86
2022-12-01T21:54:23.392Z,19.74
2022-12-01T21:59:45.109Z,19.60
2022-12-01T22:05:25.819Z,19.50
2022-12-01T22:11:02.474Z,19.39
2022-12-01T22:16:40.798Z,19.28
2022-12-01T22:22:03.742Z,19.17
2022-12-01T22:27:28.670Z,19.10
2022-12-01T22:33:00.459Z,19.03
2022-12-01T22:38:34.118Z,18.97
2022-12-01T22:43:57.763Z,18.89
2022-12-01T22:49:23.165Z,18.84
2022-12-01T22:54:49.323Z,18.77
2022-12-01T23:00:16.956Z,18.70
2022-12-01T23:05:38.851Z,18.63
2022-12-01T23:11:00.600Z,18.57
2022-12-01T23:16:22.397Z,18.53
2022-12-01T23:21:44.384Z,18.48
2022-12-01T23:27:07.073Z,18.43
2022-12-01T23:32:28.736Z,18.41
2022-12-01T23:37:50.630Z,18.38
2022-12-01T23:43:19.123Z,18.35
2022-12-01T23:48:47.177Z,18.32
2022-12-01T23:54:20.794Z,18.27
2022-12-01T23:59:43.706Z,18.24
